Hovedside
METAR-TAF:

METAR-TAF

Lufthavner :

Pohnpei, Mikronesia

breddegrad: 06-59N, lengdegrad: 158-12E, høyde over havet: 2 m

Gjeldene værobservasjon

Denne rapporten ble laget for 3 timer og 12 minutter siden, klokken 03:50 UTC
Vind 9 kt fra Øst
Temperatur 31°C
Luftfuktighet 75%
Trykk 1007 hPa
Sikt: 24.1 km
Brutte skyer i en høyde av 1800 ft, Tårnskyer (cumulus).
Overskyet i en høyde av 30000 ft

METAR: PTPN 250350Z 09009KT 15SM BKN018TCU OVC300 31/26 A2973 RMK TCU ALQDS LAST

Tid: 18:02 (07:02 UTC)

Varsel

Denne rapporten ble laget for 7 timer og 36 minutter siden, klokken 23:26 UTC
Varsel gyldig fra 25. klokken 00 UTC til 25. klokken 24 UTC
Vind 7 kt fra Øst
Sikt: 10 km
Spredte skyer i en høyde av 1800 ft
Spredte skyer i en høyde av 13000 ft
regnbyger i nærheten

TAF: PTPN 242326Z 2500/2524 08007KT P6SM VCSH SCT018 SCT130

Værobservasjoner og værvarsel for over 4000 flyplasser (METAR- og TAF-rapporter).

Tilgjengelige stasjoner er representert av de røde og gule prikkene på kartet.

Hold musepekeren over prikken for å se navnet på stasjonen.

Klikk så for å se værobservasjoner og -varsler.

For å forandre kartet kan du klikke på den grønne knappen med svart kryss for å zoome inn, på den grønne knappen med strek for å zoome ut, eller på de grønne pilene for å se tilstøtende kart.


METAR-TAF: